Nikolaos K — SVA5369 — position and weather

sailwx.info

Track history (hours):
 
Tides and Currents Weather Stations Pressure Air Temp Water Temp Dewpoint Dewpoint Depression Visibility Wind Speed Wind Dir Waves Ship Positions

Nikolaos K

Last reported at 2017-Oct-18 08:02 UTC. Time now 2017-Oct-18 11:03 UTC.
Position N 40°02' E 024°25'.

Length 75 m; draft 3.2 m.

Type: Cargo ship. MMSI: 239793000.

Date/timePositionNaut miles runAvg speedWind from/ knotsBaromVisibWave heightAir tempDewpointWater temp
2017-Oct-18 08:02N 40°02' E 024°25'010.8
2017-Oct-18 07:59N 40°02' E 024°25'511.2
2017-Oct-18 07:30N 40°08' E 024°25'611.4
2017-Oct-18 07:00N 40°13' E 024°25'611.2
2017-Oct-18 06:30N 40°19' E 024°25'511.0
2017-Oct-18 06:00N 40°25' E 024°25'611.1
2017-Oct-18 05:30N 40°30' E 024°26'611.1
2017-Oct-18 05:00N 40°36' E 024°27'611.1
2017-Oct-18 04:31N 40°41' E 024°27'510.6
2017-Oct-18 04:01N 40°46' E 024°28'510.3
2017-Oct-18 03:31N 40°51' E 024°28'5 9.6
2017-Oct-18 03:01N 40°56' E 024°29'0 0.2
2017-Oct-18 02:30N 40°56' E 024°29'0 0.0
2017-Oct-18 02:00N 40°56' E 024°29'0 0.0
2017-Oct-18 01:31N 40°56' E 024°29'0 0.0
2017-Oct-18 01:01N 40°56' E 024°29'0 0.0
2017-Oct-18 00:30N 40°56' E 024°29'0 0.0
2017-Oct-18 00:00N 40°56' E 024°29'0 0.0
2017-Oct-17 23:30N 40°56' E 024°29'0 0.0
2017-Oct-17 23:01N 40°56' E 024°29'0 0.0
2017-Oct-17 22:31N 40°56' E 024°29'0 0.0
2017-Oct-17 22:01N 40°56' E 024°29'0 0.0
2017-Oct-17 21:30N 40°56' E 024°29'0 0.0
2017-Oct-17 21:00N 40°56' E 024°29'0 0.0
2017-Oct-17 20:30N 40°56' E 024°29'0 0.0
2017-Oct-17 20:00N 40°56' E 024°29'0 0.1
2017-Oct-17 19:30N 40°56' E 024°29'0 0.0
2017-Oct-17 19:00N 40°56' E 024°29'0 0.1
2017-Oct-17 18:30N 40°56' E 024°29'0 0.0
2017-Oct-17 18:00N 40°56' E 024°29'0 0.0
2017-Oct-17 17:30N 40°56' E 024°29'1 1.4
2017-Oct-17 17:01N 40°57' E 024°28'0 0.0
2017-Oct-17 16:30N 40°57' E 024°28'0 0.0
2017-Oct-17 16:00N 40°57' E 024°28'0 0.0
2017-Oct-17 15:30N 40°57' E 024°28'0 0.0
2017-Oct-17 15:00N 40°57' E 024°28'0 0.0
2017-Oct-17 14:30N 40°57' E 024°28'0 0.0
2017-Oct-17 14:00N 40°57' E 024°28'0 0.0
2017-Oct-17 13:30N 40°57' E 024°28'0 0.0
2017-Oct-17 13:00N 40°57' E 024°28'0 0.0
2017-Oct-17 12:30N 40°57' E 024°28'0 0.0
2017-Oct-17 12:00N 40°57' E 024°28'0 0.0
2017-Oct-17 11:30N 40°57' E 024°28'0 0.0
2017-Oct-17 11:00N 40°57' E 024°28'0 0.0
2017-Oct-17 10:30N 40°57' E 024°28'0 0.0
2017-Oct-17 10:00N 40°57' E 024°28'0 0.0
2017-Oct-17 09:30N 40°57' E 024°28'0 0.0
2017-Oct-17 09:00N 40°57' E 024°28'0 0.0
2017-Oct-17 08:30N 40°57' E 024°28'0 0.0
2017-Oct-17 08:01N 40°57' E 024°28'0 0.0
2017-Oct-17 07:30N 40°57' E 024°28'0 0.0
2017-Oct-17 07:00N 40°57' E 024°28'0 0.0
2017-Oct-17 06:31N 40°57' E 024°28'1 1.3
2017-Oct-17 06:00N 40°57' E 024°29'0 0.1
2017-Oct-17 05:31N 40°56' E 024°29'1 2.7
2017-Oct-17 05:00N 40°55' E 024°29'4 8.3
2017-Oct-17 04:30N 40°51' E 024°29'611.5
2017-Oct-17 04:00N 40°45' E 024°28'611.2
2017-Oct-17 03:30N 40°40' E 024°27'610.9
2017-Oct-17 02:59N 40°34' E 024°27'611.2
2017-Oct-17 02:27N 40°28' E 024°26'511.0
2017-Oct-17 02:00N 40°23' E 024°27'611.0
2017-Oct-17 01:28N 40°17' E 024°26'1310.0
2017-Oct-17 00:08N 40°05' E 024°20'211.1
2017-Oct-16 23:58N 40°04' E 024°18'511.6
2017-Oct-16 23:30N 40°01' E 024°12'611.6
2017-Oct-16 23:00N 39°58' E 024°06'1411.0
2017-Oct-16 21:46N 39°54' E 023°49'411.2
2017-Oct-16 21:27N 39°53' E 023°44'  
2017-Oct-12 17:16N 37°40' E 023°43'310.2
2017-Oct-12 17:00N 37°42' E 023°41'510.3
2017-Oct-12 16:31N 37°46' E 023°38'5 9.4
2017-Oct-12 16:00N 37°49' E 023°33'510.2
2017-Oct-12 15:31N 37°50' E 023°27'510.4
2017-Oct-12 15:01N 37°51' E 023°20'510.5
2017-Oct-12 14:31N 37°52' E 023°14'510.6
2017-Oct-12 14:00N 37°53' E 023°07'5 9.6
2017-Oct-12 13:30N 37°55' E 023°02'0 0.2
2017-Oct-12 11:43N 37°55' E 023°01'0 0.0
2017-Oct-12 11:31N 37°55' E 023°01'0 0.0
2017-Oct-12 11:01N 37°55' E 023°01'0 0.0
2017-Oct-12 10:31N 37°55' E 023°01'0 0.0
2017-Oct-12 10:00N 37°55' E 023°01'0 0.0
2017-Oct-12 09:30N 37°55' E 023°01'0 0.0
2017-Oct-12 09:01N 37°55' E 023°01'0 0.0
2017-Oct-12 08:30N 37°55' E 023°01'0 0.0
2017-Oct-12 08:01N 37°55' E 023°01'0 0.0
2017-Oct-12 07:31N 37°55' E 023°01'0 0.0
2017-Oct-12 07:01N 37°55' E 023°01'0 0.0
2017-Oct-12 06:31N 37°55' E 023°01'0 0.0
2017-Oct-12 06:01N 37°55' E 023°01'0 0.0
2017-Oct-12 05:31N 37°55' E 023°01'0 0.0
2017-Oct-12 05:01N 37°55' E 023°01'0 0.0
2017-Oct-12 04:31N 37°55' E 023°01'0 0.0
2017-Oct-12 04:01N 37°55' E 023°01'0 0.0
2017-Oct-12 03:31N 37°55' E 023°01'0 0.0
2017-Oct-12 03:01N 37°55' E 023°01'0 0.0
2017-Oct-12 02:30N 37°55' E 023°01'0 0.0
2017-Oct-12 02:01N 37°55' E 023°01'0 0.0
2017-Oct-12 01:30N 37°55' E 023°01'0 0.0
2017-Oct-12 01:00N 37°55' E 023°01'0 0.0
2017-Oct-12 00:31N 37°55' E 023°01'0 0.0
2017-Oct-12 00:00N 37°55' E 023°01'0 0.0
2017-Oct-11 23:31N 37°55' E 023°01'0 0.0
2017-Oct-11 23:01N 37°55' E 023°01'0 0.0
2017-Oct-11 22:30N 37°55' E 023°01'0 0.0
2017-Oct-11 22:01N 37°55' E 023°01'0 0.0
2017-Oct-11 21:31N 37°55' E 023°01'0 0.0
2017-Oct-11 21:01N 37°55' E 023°01'0 0.0
2017-Oct-11 20:31N 37°55' E 023°01'0 0.0
2017-Oct-11 20:01N 37°55' E 023°01'0 0.0
2017-Oct-11 19:31N 37°55' E 023°01'0 0.0
2017-Oct-11 19:01N 37°55' E 023°01'0 0.0
2017-Oct-11 18:30N 37°55' E 023°01'0 0.0
2017-Oct-11 18:01N 37°55' E 023°01'0 0.0
2017-Oct-11 17:31N 37°55' E 023°01'0 0.0
2017-Oct-11 17:01N 37°55' E 023°01'23 1.3
2017-Oct-11 00:01N 37°46' E 023°28'0 0.0
2017-Oct-10 23:30N 37°46' E 023°28'0 0.0
2017-Oct-10 23:00N 37°46' E 023°28'0 0.0
2017-Oct-10 22:31N 37°46' E 023°28'0 0.0
2017-Oct-10 22:01N 37°46' E 023°28'0 0.0
2017-Oct-10 21:31N 37°46' E 023°28'0 0.0
2017-Oct-10 21:01N 37°46' E 023°28'0 0.0
2017-Oct-10 20:31N 37°46' E 023°28'0 0.0
2017-Oct-10 20:01N 37°46' E 023°28'0 0.0
2017-Oct-10 19:31N 37°46' E 023°28'0 0.0
2017-Oct-10 19:01N 37°46' E 023°28'0 0.0
2017-Oct-10 18:30N 37°46' E 023°28'0 0.0
2017-Oct-10 18:01N 37°46' E 023°28'0 0.0
2017-Oct-10 17:30N 37°46' E 023°28'0 0.0
2017-Oct-10 17:01N 37°46' E 023°28'0 0.0
2017-Oct-10 16:30N 37°46' E 023°28'0 0.0
2017-Oct-10 16:00N 37°46' E 023°28'0 0.0
2017-Oct-10 15:31N 37°46' E 023°28'3 5.8
2017-Oct-10 15:01N 37°49' E 023°30'9 8.8
2017-Oct-10 14:01N 37°57' E 023°33'4 8.8
2017-Oct-10 13:31N 38°02' E 023°35'1 1.2
2017-Oct-10 12:59N 38°02' E 023°35'0 0.0
2017-Oct-10 12:30N 38°02' E 023°35'0 0.0
2017-Oct-10 11:51N 38°02' E 023°35'0 0.0
2017-Oct-10 11:30N 38°02' E 023°35'0 0.0
2017-Oct-10 11:00N 38°02' E 023°35'0 0.0
2017-Oct-10 10:29N 38°02' E 023°35'0 0.0
2017-Oct-10 09:59N 38°02' E 023°35'0 0.0
2017-Oct-10 09:30N 38°02' E 023°35'0 0.0
2017-Oct-10 08:37N 38°02' E 023°35'0 0.0
2017-Oct-10 08:27N 38°02' E 023°35'0 0.0
2017-Oct-10 07:58N 38°02' E 023°35'0 0.0
2017-Oct-10 07:20N 38°02' E 023°35'0 0.0
2017-Oct-10 07:01N 38°02' E 023°35'0 0.0
2017-Oct-10 06:31N 38°02' E 023°35'0 0.0
2017-Oct-10 06:00N 38°02' E 023°35'0 0.0
2017-Oct-10 05:29N 38°02' E 023°35'0 0.0
2017-Oct-10 04:48N 38°02' E 023°35'0 0.1
2017-Oct-10 04:30N 38°02' E 023°35'3 6.4
2017-Oct-10 04:00N 38°02' E 023°31'0 0.3
2017-Oct-10 03:31N 38°02' E 023°31'0 0.0
2017-Oct-10 03:00N 38°02' E 023°31'0 0.0
2017-Oct-10 02:30N 38°02' E 023°31'0 0.0
2017-Oct-10 02:00N 38°02' E 023°31'0 0.0
2017-Oct-10 01:31N 38°02' E 023°31'0 0.0
2017-Oct-10 01:00N 38°02' E 023°31'0 0.0
2017-Oct-10 00:31N 38°02' E 023°31'0 0.0
2017-Oct-10 00:01N 38°02' E 023°31'0 0.0
2017-Oct-09 23:31N 38°02' E 023°31'0 0.0
2017-Oct-09 23:00N 38°02' E 023°31'0 0.0
2017-Oct-09 22:31N 38°02' E 023°31'0 0.0
2017-Oct-09 22:00N 38°02' E 023°31'0 0.0
2017-Oct-09 21:30N 38°02' E 023°31'0 0.0
2017-Oct-09 21:00N 38°02' E 023°31'0 0.0
2017-Oct-09 20:30N 38°02' E 023°31'0 0.0
2017-Oct-09 20:00N 38°02' E 023°31'0 0.0
2017-Oct-09 19:30N 38°02' E 023°31'0 0.0
2017-Oct-09 19:00N 38°02' E 023°31'0 0.0
2017-Oct-09 18:30N 38°02' E 023°31'0 0.0
2017-Oct-09 18:00N 38°02' E 023°31'0 0.0
2017-Oct-09 17:30N 38°02' E 023°31'0 0.0
2017-Oct-09 17:00N 38°02' E 023°31'0 0.0
2017-Oct-09 16:31N 38°02' E 023°31'0 0.0
2017-Oct-09 16:01N 38°02' E 023°31'0 0.0
2017-Oct-09 15:31N 38°02' E 023°31'0 0.0
2017-Oct-09 15:00N 38°02' E 023°31'0 0.0
2017-Oct-09 14:30N 38°02' E 023°31'0 0.0
2017-Oct-09 14:01N 38°02' E 023°31'0 0.0
2017-Oct-09 13:30N 38°02' E 023°31'0 0.0
2017-Oct-09 13:01N 38°02' E 023°31'0 0.0
2017-Oct-09 12:30N 38°02' E 023°31'0 0.0
2017-Oct-09 12:00N 38°02' E 023°31'0 0.0
2017-Oct-09 11:30N 38°02' E 023°31'0 0.0
2017-Oct-09 11:00N 38°02' E 023°31'0 0.0
2017-Oct-09 10:30N 38°02' E 023°31'0 0.0
2017-Oct-09 10:00N 38°02' E 023°31'0 0.0
2017-Oct-09 09:30N 38°02' E 023°31'0 0.0
2017-Oct-09 09:00N 38°02' E 023°31'0 0.0
2017-Oct-09 08:30N 38°02' E 023°31'0 0.0
2017-Oct-09 08:00N 38°02' E 023°31'0 0.0
2017-Oct-09 07:30N 38°02' E 023°31'0 0.0
2017-Oct-09 07:00N 38°02' E 023°31'0 0.0
2017-Oct-09 06:30N 38°02' E 023°31'0 0.0
2017-Oct-09 06:00N 38°02' E 023°31'0 0.0
2017-Oct-09 05:31N 38°02' E 023°31'0 0.0
2017-Oct-09 05:00N 38°02' E 023°31'0 0.0
2017-Oct-09 04:30N 38°02' E 023°31'0 0.0
2017-Oct-09 04:00N 38°02' E 023°31'0 0.0
2017-Oct-09 03:30N 38°02' E 023°31'0 0.0
2017-Oct-09 03:00N 38°02' E 023°31'0 0.0
2017-Oct-09 02:30N 38°02' E 023°31'0 0.0
2017-Oct-09 02:01N 38°02' E 023°31'0 0.0
2017-Oct-09 01:30N 38°02' E 023°31'0 0.0
2017-Oct-09 01:00N 38°02' E 023°31'0 0.0
2017-Oct-09 00:30N 38°02' E 023°31'0 0.0
2017-Oct-09 00:01N 38°02' E 023°31'0 0.0
2017-Oct-08 23:30N 38°02' E 023°31'0 0.0
2017-Oct-08 23:01N 38°02' E 023°31'0 0.0
2017-Oct-08 22:30N 38°02' E 023°31'0 0.0
2017-Oct-08 22:00N 38°02' E 023°31'0 0.0
2017-Oct-08 21:30N 38°02' E 023°31'0 0.0
2017-Oct-08 21:00N 38°02' E 023°31'0 0.0
2017-Oct-08 20:30N 38°02' E 023°31'0 0.0
2017-Oct-08 20:00N 38°02' E 023°31'0 0.0
2017-Oct-08 19:31N 38°02' E 023°31'0 0.0
2017-Oct-08 19:01N 38°02' E 023°31'0 0.0
2017-Oct-08 18:30N 38°02' E 023°31'0 0.0
2017-Oct-08 18:00N 38°02' E 023°31'0 0.0
2017-Oct-08 17:31N 38°02' E 023°31'0 0.0
2017-Oct-08 17:00N 38°02' E 023°31'0 0.0
2017-Oct-08 16:30N 38°02' E 023°31'0 0.0
2017-Oct-08 16:00N 38°02' E 023°31'0 0.0
2017-Oct-08 15:30N 38°02' E 023°31'0 0.0
2017-Oct-08 15:00N 38°02' E 023°31'0 0.0
2017-Oct-08 14:30N 38°02' E 023°31'0 0.0
2017-Oct-08 14:00N 38°02' E 023°31'0 0.0
2017-Oct-08 13:31N 38°02' E 023°31'0 0.0
2017-Oct-08 13:01N 38°02' E 023°31'0 0.0
2017-Oct-08 12:31N 38°02' E 023°31'0 0.0
2017-Oct-08 12:00N 38°02' E 023°31'0 0.0
2017-Oct-08 11:30N 38°02' E 023°31'0 0.0
2017-Oct-08 11:00N 38°02' E 023°31'0 0.0
2017-Oct-08 10:30N 38°02' E 023°31'0 0.0
2017-Oct-08 10:01N 38°02' E 023°31'0 0.0
2017-Oct-08 09:30N 38°02' E 023°31'0 0.0
2017-Oct-08 09:01N 38°02' E 023°31'0 0.0
2017-Oct-08 08:30N 38°02' E 023°31'  
Track history (hours):
 
Tides and Currents Weather Stations Pressure Air Temp Water Temp Dewpoint Dewpoint Depression Visibility Wind Speed Wind Dir Waves Ship Positions

Nikolaos K

Last reported at 2017-Oct-18 08:02 UTC. Time now 2017-Oct-18 11:03 UTC.
Position N 40°02' E 024°25'.

Length 75 m; draft 3.2 m.

Type: Cargo ship. MMSI: 239793000.

Date/timePositionNaut miles runAvg speedWind from/ knotsBaromVisibWave heightAir tempDewpointWater temp
2017-Oct-18 08:02N 40°02' E 024°25'010.8
2017-Oct-18 07:59N 40°02' E 024°25'511.2
2017-Oct-18 07:30N 40°08' E 024°25'611.4
2017-Oct-18 07:00N 40°13' E 024°25'611.2
2017-Oct-18 06:30N 40°19' E 024°25'511.0
2017-Oct-18 06:00N 40°25' E 024°25'611.1
2017-Oct-18 05:30N 40°30' E 024°26'611.1
2017-Oct-18 05:00N 40°36' E 024°27'611.1
2017-Oct-18 04:31N 40°41' E 024°27'510.6
2017-Oct-18 04:01N 40°46' E 024°28'510.3
2017-Oct-18 03:31N 40°51' E 024°28'5 9.6
2017-Oct-18 03:01N 40°56' E 024°29'0 0.2
2017-Oct-18 02:30N 40°56' E 024°29'0 0.0
2017-Oct-18 02:00N 40°56' E 024°29'0 0.0
2017-Oct-18 01:31N 40°56' E 024°29'0 0.0
2017-Oct-18 01:01N 40°56' E 024°29'0 0.0
2017-Oct-18 00:30N 40°56' E 024°29'0 0.0
2017-Oct-18 00:00N 40°56' E 024°29'0 0.0
2017-Oct-17 23:30N 40°56' E 024°29'0 0.0
2017-Oct-17 23:01N 40°56' E 024°29'0 0.0
2017-Oct-17 22:31N 40°56' E 024°29'0 0.0
2017-Oct-17 22:01N 40°56' E 024°29'0 0.0
2017-Oct-17 21:30N 40°56' E 024°29'0 0.0
2017-Oct-17 21:00N 40°56' E 024°29'0 0.0
2017-Oct-17 20:30N 40°56' E 024°29'0 0.0
2017-Oct-17 20:00N 40°56' E 024°29'0 0.1
2017-Oct-17 19:30N 40°56' E 024°29'0 0.0
2017-Oct-17 19:00N 40°56' E 024°29'0 0.1
2017-Oct-17 18:30N 40°56' E 024°29'0 0.0
2017-Oct-17 18:00N 40°56' E 024°29'0 0.0
2017-Oct-17 17:30N 40°56' E 024°29'1 1.4
2017-Oct-17 17:01N 40°57' E 024°28'0 0.0
2017-Oct-17 16:30N 40°57' E 024°28'0 0.0
2017-Oct-17 16:00N 40°57' E 024°28'0 0.0
2017-Oct-17 15:30N 40°57' E 024°28'0 0.0
2017-Oct-17 15:00N 40°57' E 024°28'0 0.0
2017-Oct-17 14:30N 40°57' E 024°28'0 0.0
2017-Oct-17 14:00N 40°57' E 024°28'0 0.0
2017-Oct-17 13:30N 40°57' E 024°28'0 0.0
2017-Oct-17 13:00N 40°57' E 024°28'0 0.0
2017-Oct-17 12:30N 40°57' E 024°28'0 0.0
2017-Oct-17 12:00N 40°57' E 024°28'0 0.0
2017-Oct-17 11:30N 40°57' E 024°28'0 0.0
2017-Oct-17 11:00N 40°57' E 024°28'0 0.0
2017-Oct-17 10:30N 40°57' E 024°28'0 0.0
2017-Oct-17 10:00N 40°57' E 024°28'0 0.0
2017-Oct-17 09:30N 40°57' E 024°28'0 0.0
2017-Oct-17 09:00N 40°57' E 024°28'0 0.0
2017-Oct-17 08:30N 40°57' E 024°28'0 0.0
2017-Oct-17 08:01N 40°57' E 024°28'0 0.0
2017-Oct-17 07:30N 40°57' E 024°28'0 0.0
2017-Oct-17 07:00N 40°57' E 024°28'0 0.0
2017-Oct-17 06:31N 40°57' E 024°28'1 1.3
2017-Oct-17 06:00N 40°57' E 024°29'0 0.1
2017-Oct-17 05:31N 40°56' E 024°29'1 2.7
2017-Oct-17 05:00N 40°55' E 024°29'4 8.3
2017-Oct-17 04:30N 40°51' E 024°29'611.5
2017-Oct-17 04:00N 40°45' E 024°28'611.2
2017-Oct-17 03:30N 40°40' E 024°27'610.9
2017-Oct-17 02:59N 40°34' E 024°27'611.2
2017-Oct-17 02:27N 40°28' E 024°26'511.0
2017-Oct-17 02:00N 40°23' E 024°27'611.0
2017-Oct-17 01:28N 40°17' E 024°26'1310.0
2017-Oct-17 00:08N 40°05' E 024°20'211.1
2017-Oct-16 23:58N 40°04' E 024°18'511.6
2017-Oct-16 23:30N 40°01' E 024°12'611.6
2017-Oct-16 23:00N 39°58' E 024°06'1411.0
2017-Oct-16 21:46N 39°54' E 023°49'411.2
2017-Oct-16 21:27N 39°53' E 023°44'  
2017-Oct-12 17:16N 37°40' E 023°43'310.2
2017-Oct-12 17:00N 37°42' E 023°41'510.3
2017-Oct-12 16:31N 37°46' E 023°38'5 9.4
2017-Oct-12 16:00N 37°49' E 023°33'510.2
2017-Oct-12 15:31N 37°50' E 023°27'510.4
2017-Oct-12 15:01N 37°51' E 023°20'510.5
2017-Oct-12 14:31N 37°52' E 023°14'510.6
2017-Oct-12 14:00N 37°53' E 023°07'5 9.6
2017-Oct-12 13:30N 37°55' E 023°02'0 0.2
2017-Oct-12 11:43N 37°55' E 023°01'0 0.0
2017-Oct-12 11:31N 37°55' E 023°01'0 0.0
2017-Oct-12 11:01N 37°55' E 023°01'0 0.0
2017-Oct-12 10:31N 37°55' E 023°01'0 0.0
2017-Oct-12 10:00N 37°55' E 023°01'0 0.0
2017-Oct-12 09:30N 37°55' E 023°01'0 0.0
2017-Oct-12 09:01N 37°55' E 023°01'0 0.0
2017-Oct-12 08:30N 37°55' E 023°01'0 0.0
2017-Oct-12 08:01N 37°55' E 023°01'0 0.0
2017-Oct-12 07:31N 37°55' E 023°01'0 0.0
2017-Oct-12 07:01N 37°55' E 023°01'0 0.0
2017-Oct-12 06:31N 37°55' E 023°01'0 0.0
2017-Oct-12 06:01N 37°55' E 023°01'0 0.0
2017-Oct-12 05:31N 37°55' E 023°01'0 0.0
2017-Oct-12 05:01N 37°55' E 023°01'0 0.0
2017-Oct-12 04:31N 37°55' E 023°01'0 0.0
2017-Oct-12 04:01N 37°55' E 023°01'0 0.0
2017-Oct-12 03:31N 37°55' E 023°01'0 0.0
2017-Oct-12 03:01N 37°55' E 023°01'0 0.0
2017-Oct-12 02:30N 37°55' E 023°01'0 0.0
2017-Oct-12 02:01N 37°55' E 023°01'0 0.0
2017-Oct-12 01:30N 37°55' E 023°01'0 0.0
2017-Oct-12 01:00N 37°55' E 023°01'0 0.0
2017-Oct-12 00:31N 37°55' E 023°01'0 0.0
2017-Oct-12 00:00N 37°55' E 023°01'0 0.0
2017-Oct-11 23:31N 37°55' E 023°01'0 0.0
2017-Oct-11 23:01N 37°55' E 023°01'0 0.0
2017-Oct-11 22:30N 37°55' E 023°01'0 0.0
2017-Oct-11 22:01N 37°55' E 023°01'0 0.0
2017-Oct-11 21:31N 37°55' E 023°01'0 0.0
2017-Oct-11 21:01N 37°55' E 023°01'0 0.0
2017-Oct-11 20:31N 37°55' E 023°01'0 0.0
2017-Oct-11 20:01N 37°55' E 023°01'0 0.0
2017-Oct-11 19:31N 37°55' E 023°01'0 0.0
2017-Oct-11 19:01N 37°55' E 023°01'0 0.0
2017-Oct-11 18:30N 37°55' E 023°01'0 0.0
2017-Oct-11 18:01N 37°55' E 023°01'0 0.0
2017-Oct-11 17:31N 37°55' E 023°01'0 0.0
2017-Oct-11 17:01N 37°55' E 023°01'23 1.3
2017-Oct-11 00:01N 37°46' E 023°28'0 0.0
2017-Oct-10 23:30N 37°46' E 023°28'0 0.0
2017-Oct-10 23:00N 37°46' E 023°28'0 0.0
2017-Oct-10 22:31N 37°46' E 023°28'0 0.0
2017-Oct-10 22:01N 37°46' E 023°28'0 0.0
2017-Oct-10 21:31N 37°46' E 023°28'0 0.0
2017-Oct-10 21:01N 37°46' E 023°28'0 0.0
2017-Oct-10 20:31N 37°46' E 023°28'0 0.0
2017-Oct-10 20:01N 37°46' E 023°28'0 0.0
2017-Oct-10 19:31N 37°46' E 023°28'0 0.0
2017-Oct-10 19:01N 37°46' E 023°28'0 0.0
2017-Oct-10 18:30N 37°46' E 023°28'0 0.0
2017-Oct-10 18:01N 37°46' E 023°28'0 0.0
2017-Oct-10 17:30N 37°46' E 023°28'0 0.0
2017-Oct-10 17:01N 37°46' E 023°28'0 0.0
2017-Oct-10 16:30N 37°46' E 023°28'0 0.0
2017-Oct-10 16:00N 37°46' E 023°28'0 0.0
2017-Oct-10 15:31N 37°46' E 023°28'3 5.8
2017-Oct-10 15:01N 37°49' E 023°30'9 8.8
2017-Oct-10 14:01N 37°57' E 023°33'4 8.8
2017-Oct-10 13:31N 38°02' E 023°35'1 1.2
2017-Oct-10 12:59N 38°02' E 023°35'0 0.0
2017-Oct-10 12:30N 38°02' E 023°35'0 0.0
2017-Oct-10 11:51N 38°02' E 023°35'0 0.0
2017-Oct-10 11:30N 38°02' E 023°35'0 0.0
2017-Oct-10 11:00N 38°02' E 023°35'0 0.0
2017-Oct-10 10:29N 38°02' E 023°35'0 0.0
2017-Oct-10 09:59N 38°02' E 023°35'0 0.0
2017-Oct-10 09:30N 38°02' E 023°35'0 0.0
2017-Oct-10 08:37N 38°02' E 023°35'0 0.0
2017-Oct-10 08:27N 38°02' E 023°35'0 0.0
2017-Oct-10 07:58N 38°02' E 023°35'0 0.0
2017-Oct-10 07:20N 38°02' E 023°35'0 0.0
2017-Oct-10 07:01N 38°02' E 023°35'0 0.0
2017-Oct-10 06:31N 38°02' E 023°35'0 0.0
2017-Oct-10 06:00N 38°02' E 023°35'0 0.0
2017-Oct-10 05:29N 38°02' E 023°35'0 0.0
2017-Oct-10 04:48N 38°02' E 023°35'0 0.1
2017-Oct-10 04:30N 38°02' E 023°35'3 6.4
2017-Oct-10 04:00N 38°02' E 023°31'0 0.3
2017-Oct-10 03:31N 38°02' E 023°31'0 0.0
2017-Oct-10 03:00N 38°02' E 023°31'0 0.0
2017-Oct-10 02:30N 38°02' E 023°31'0 0.0
2017-Oct-10 02:00N 38°02' E 023°31'0 0.0
2017-Oct-10 01:31N 38°02' E 023°31'0 0.0
2017-Oct-10 01:00N 38°02' E 023°31'0 0.0
2017-Oct-10 00:31N 38°02' E 023°31'0 0.0
2017-Oct-10 00:01N 38°02' E 023°31'0 0.0
2017-Oct-09 23:31N 38°02' E 023°31'0 0.0
2017-Oct-09 23:00N 38°02' E 023°31'0 0.0
2017-Oct-09 22:31N 38°02' E 023°31'0 0.0
2017-Oct-09 22:00N 38°02' E 023°31'0 0.0
2017-Oct-09 21:30N 38°02' E 023°31'0 0.0
2017-Oct-09 21:00N 38°02' E 023°31'0 0.0
2017-Oct-09 20:30N 38°02' E 023°31'0 0.0
2017-Oct-09 20:00N 38°02' E 023°31'0 0.0
2017-Oct-09 19:30N 38°02' E 023°31'0 0.0
2017-Oct-09 19:00N 38°02' E 023°31'0 0.0
2017-Oct-09 18:30N 38°02' E 023°31'0 0.0
2017-Oct-09 18:00N 38°02' E 023°31'0 0.0
2017-Oct-09 17:30N 38°02' E 023°31'0 0.0
2017-Oct-09 17:00N 38°02' E 023°31'0 0.0
2017-Oct-09 16:31N 38°02' E 023°31'0 0.0
2017-Oct-09 16:01N 38°02' E 023°31'0 0.0
2017-Oct-09 15:31N 38°02' E 023°31'0 0.0
2017-Oct-09 15:00N 38°02' E 023°31'0 0.0
2017-Oct-09 14:30N 38°02' E 023°31'0 0.0
2017-Oct-09 14:01N 38°02' E 023°31'0 0.0
2017-Oct-09 13:30N 38°02' E 023°31'0 0.0
2017-Oct-09 13:01N 38°02' E 023°31'0 0.0
2017-Oct-09 12:30N 38°02' E 023°31'0 0.0
2017-Oct-09 12:00N 38°02' E 023°31'0 0.0
2017-Oct-09 11:30N 38°02' E 023°31'0 0.0
2017-Oct-09 11:00N 38°02' E 023°31'0 0.0
2017-Oct-09 10:30N 38°02' E 023°31'0 0.0
2017-Oct-09 10:00N 38°02' E 023°31'0 0.0
2017-Oct-09 09:30N 38°02' E 023°31'0 0.0
2017-Oct-09 09:00N 38°02' E 023°31'0 0.0
2017-Oct-09 08:30N 38°02' E 023°31'0 0.0
2017-Oct-09 08:00N 38°02' E 023°31'0 0.0
2017-Oct-09 07:30N 38°02' E 023°31'0 0.0
2017-Oct-09 07:00N 38°02' E 023°31'0 0.0
2017-Oct-09 06:30N 38°02' E 023°31'0 0.0
2017-Oct-09 06:00N 38°02' E 023°31'0 0.0
2017-Oct-09 05:31N 38°02' E 023°31'0 0.0
2017-Oct-09 05:00N 38°02' E 023°31'0 0.0
2017-Oct-09 04:30N 38°02' E 023°31'0 0.0
2017-Oct-09 04:00N 38°02' E 023°31'0 0.0
2017-Oct-09 03:30N 38°02' E 023°31'0 0.0
2017-Oct-09 03:00N 38°02' E 023°31'0 0.0
2017-Oct-09 02:30N 38°02' E 023°31'0 0.0
2017-Oct-09 02:01N 38°02' E 023°31'0 0.0
2017-Oct-09 01:30N 38°02' E 023°31'0 0.0
2017-Oct-09 01:00N 38°02' E 023°31'0 0.0
2017-Oct-09 00:30N 38°02' E 023°31'0 0.0
2017-Oct-09 00:01N 38°02' E 023°31'0 0.0
2017-Oct-08 23:30N 38°02' E 023°31'0 0.0
2017-Oct-08 23:01N 38°02' E 023°31'0 0.0
2017-Oct-08 22:30N 38°02' E 023°31'0 0.0
2017-Oct-08 22:00N 38°02' E 023°31'0 0.0
2017-Oct-08 21:30N 38°02' E 023°31'0 0.0
2017-Oct-08 21:00N 38°02' E 023°31'0 0.0
2017-Oct-08 20:30N 38°02' E 023°31'0 0.0
2017-Oct-08 20:00N 38°02' E 023°31'0 0.0
2017-Oct-08 19:31N 38°02' E 023°31'0 0.0
2017-Oct-08 19:01N 38°02' E 023°31'0 0.0
2017-Oct-08 18:30N 38°02' E 023°31'0 0.0
2017-Oct-08 18:00N 38°02' E 023°31'0 0.0
2017-Oct-08 17:31N 38°02' E 023°31'0 0.0
2017-Oct-08 17:00N 38°02' E 023°31'0 0.0
2017-Oct-08 16:30N 38°02' E 023°31'0 0.0
2017-Oct-08 16:00N 38°02' E 023°31'0 0.0
2017-Oct-08 15:30N 38°02' E 023°31'0 0.0
2017-Oct-08 15:00N 38°02' E 023°31'0 0.0
2017-Oct-08 14:30N 38°02' E 023°31'0 0.0
2017-Oct-08 14:00N 38°02' E 023°31'0 0.0
2017-Oct-08 13:31N 38°02' E 023°31'0 0.0
2017-Oct-08 13:01N 38°02' E 023°31'0 0.0
2017-Oct-08 12:31N 38°02' E 023°31'0 0.0
2017-Oct-08 12:00N 38°02' E 023°31'0 0.0
2017-Oct-08 11:30N 38°02' E 023°31'0 0.0
2017-Oct-08 11:00N 38°02' E 023°31'0 0.0
2017-Oct-08 10:30N 38°02' E 023°31'0 0.0
2017-Oct-08 10:01N 38°02' E 023°31'0 0.0
2017-Oct-08 09:30N 38°02' E 023°31'0 0.0
2017-Oct-08 09:01N 38°02' E 023°31'0 0.0
2017-Oct-08 08:30N 38°02' E 023°31'  

Dump ship's entire track history